AirNav   MODERNIZE NOT PRIVATIZE ATC
 
 312 users online  

38OI Ronshausen Airport
Darbyville, Ohio, USA

GOING TO DARBYVILLE?


FAA INFORMATION EFFECTIVE 20 JULY 2017

Location

FAA Identifier: 38OI
Lat/Long: 39-41-06.2240N / 083-04-18.6670W
39-41.103733N / 083-04.311117W
39.6850622 / -83.0718519
(estimated)
Elevation: 750 ft. / 229 m (estimated)
Variation: 05W (1985)
From city: 4 miles SE of DARBYVILLE, OH
Time zone: UTC -4 (UTC -5 during Standard Time)
Zip code: 43113

Airport Operations

Airport use: Private use. Permission required prior to landing
Activation date: 08/1985
Control tower: no
ARTCC: INDIANAPOLIS CENTER
FSS: DAYTON FLIGHT SERVICE STATION
Attendance: UNATNDD
Wind indicator: yes
Segmented circle: no

Airport Communications

WX AWOS-3 at LCK (10 nm NE): 132.750 (614-492-2441)
WX AWOS-3 at TZR (13 nm N): 135.925 (614-878-1722)
WX AWOS-3 at RZT (15 nm S): 119.225 (740-779-1364)
WX AWOS-3PT at I23 (18 nm SW): 118.775
WX ASOS at LHQ (20 nm E): 118.375 (740-681-1097)

Nearby radio navigation aids

VOR radial/distance  VOR name  Freq  Var
XUBr340/(10.4)YELLOW BUD VOR112.5005W
APEr225/35.7APPLETON VORTAC116.7006W
SGHr108/36.8SPRINGFIELD VOR/DME113.2004W
MXQr070/37.1MIDWEST VOR/DME112.9004W

 
NDB name  Hdg/Dist  Freq  Var  ID
COBBS221/4.225307WDD -.. -..
BOUTN148/10.123005WBU -... ..-
COURT HOUSE077/15.641406WCSS -.-. ... ...
WAVERLY354/31.738506WEOP . --- .--.
CLARK COUNTY113/34.534104WCCJ -.-. -.-. .---
NEWARK240/34.752406WHEH .... . ....
HILLSBORO041/37.127805WHOC .... --- -.-.

Airport Services

Runway Information

Runway 9/27

Dimensions: 3000 x 90 ft. / 914 x 27 m
Surface: turf
RUNWAY 9  RUNWAY 27
Traffic pattern: leftleft

Airport Ownership and Management from official FAA records

Ownership: Privately-owned
Owner: AGNES RONSHAUSEN
17418 FLORENCE CHAPEL
CIRCLEVILLE, OH 43113
Phone 614-474-4755
Manager: STEVE RONSHAUSEN
17418 FLORENCE CHAPEL
CIRCLEVILLE, OH 43113
Phone 614-474-4755

Airport Operational Statistics

Aircraft based on the field: 2
Single engine airplanes: 1
Multi engine airplanes: 1
    

Instrument Procedures

There are no published instrument procedures at 38OI.

Some nearby airports with instrument procedures:

KLCK - Rickenbacker International Airport (10 nm NE)
KCYO - Pickaway County Memorial Airport (11 nm S)
KTZR - Bolton Field Airport (13 nm N)
KRZT - Ross County Airport (15 nm S)
I23 - Fayette County Airport (18 nm SW)
KLHQ - Fairfield County Airport (20 nm E)
 
Loc | Ops | Rwys | IFR | FBO | Links
Com | Nav | Svcs | Stats | Notes

City of Findlay
 
Area around 38OI (Ronshausen Airport)
 
Road maps at: MapQuest Bing Google
 
Aerial photo
No photo
 
Sectional chart

 
Airport distance calculator
Flying to Ronshausen Airport? Find the distance to fly.

From to 38OI

Sunrise and sunset
Times for 23-Jul-2017
 Local
(UTC-4)
 Zulu
(UTC)
Morning civil twilight05:5309:53
Sunrise06:2410:24
Sunset20:5300:53
Evening civil twilight21:2401:24

Current date and time
Zulu (UTC)  23-Jul-2017 07:24:12
Local (UTC-4)  23-Jul-2017 03:24:12
 
METAR
KLCK 
11nm NE 
230655Z AUTO 20004KT 10SM SCT032 BKN060 23/22 A2981 RMK AO2 LTG DSNT SE AND SW T02290223
KTZR 
12nm N 
230655Z AUTO 25003KT 10SM BKN055 23/22 A2982 RMK AO2 LTG DSNT SW T02260222
KRZT 
15nm S 
230654Z AUTO 28009KT 10SM SCT070 BKN080 BKN090 23/22 A2982 RMK AO2 LTG DSNT SE THRU W
KLHQ 
19nm E 
230653Z AUTO 00000KT 10SM SCT033 BKN060 22/22 A2981 RMK AO2 SLP087 T02220222
KCMH 
21nm NE 
230651Z 22003KT 10SM FEW060 FEW075 BKN250 24/23 A2980 RMK AO2 SLP084 T02390228
TAF
KLCK 
11nm NE 
230547Z 2306/2406 00000KT P6SM OVC060 FM230800 00000KT 5SM BR BKN025 FM231300 21004KT P6SM SCT025 FM231800 24007KT P6SM VCSH BKN035 FM232000 28005KT P6SM -SHRA VCTS BKN025CB TEMPO 2321/2401 5SM -TSRA FM240300 33004KT P6SM VCSH BKN025
NOTAMs
Click for the latest NOTAMs
NOTAMs are issued by the DoD/FAA and will open in a separate window not controlled by AirNav.

 

 
 

Would you like to see your business listed on this page?

 If your business provides an interesting product or service to pilots, flight crews, aircraft, or users of the Ronshausen Airport, you should consider listing it here.  To start the listing process, click on the button below
 
Add a business
 

Other Pages about Ronshausen Airport

Update a link
 
Copyright © AirNav, LLC. All rights reserved. Privacy Policy  Contact